Hlavní strana
METAR-TAF:

METAR-TAF

Letiště :

Winnsboro, Jižní Karolína, Spojené státy americké

zeměpisná šířka: 34-18-56N, zeměpisná délka: 081-06-32W, výška: 176 m

Aktuální stav počasí

Zpráva byla vytvořena před 17 minutami, v 01:15 UTC
Jihovýchodní vítr 8 kt
Teplota 21°C
Vlhkost vzduchu 94%
Tlak 1017 hPa
Viditelnost: 16.1 km
Polojasno ve výšce 500 ft
Polojasno ve výšce 4100 ft
Oblačno až skoro zataženo ve výšce 11000 ft
slabý déšť

METAR: KFDW 300115Z AUTO 14008KT 10SM -RA SCT005 SCT041 BKN110 21/20 A3004 RMK AO1 P0001 LTG DSNT E

Čas: 21:32 (01:32 UTC)


TAF: chybějící

Stav a předpovědi počasí z více než 4 000 letišť (zprávy METAR a TAF).

Červené a žluté tečky na mapě představují dostupné meteorologické stanice.

Když kurzor umístíte na tečku, zobrazí se název stanice.

Pak kliknutím zobrazíte stav a předpověď počasí.

Chcete-li změnit mapu, kliknutím na zelené tlačítko se znaménkem +mapu přiblížíte, kliknutím na zelené tlačítko se znaménkem – mapu oddálíte a kliknutím na zelené šipky přejdete na sousední mapy.


METAR-TAF: